createdAt,value
2022-11-16T00:04:46.796Z,5.40
2022-11-16T00:09:51.369Z,5.10
2022-11-16T00:14:54.575Z,4.77
2022-11-16T00:19:57.701Z,5.47
2022-11-16T00:25:02.395Z,5.17
2022-11-16T00:30:06.018Z,5.50
2022-11-16T00:35:09.679Z,5.27
2022-11-16T00:40:14.720Z,5.60
2022-11-16T00:45:17.922Z,5.00
2022-11-16T00:50:21.136Z,4.93
2022-11-16T00:55:25.954Z,5.80
2022-11-16T01:00:29.524Z,5.37
2022-11-16T01:05:32.708Z,5.60
2022-11-16T01:10:39.472Z,5.10
2022-11-16T01:15:48.279Z,4.80
2022-11-16T01:20:53.622Z,5.17
2022-11-16T01:25:58.738Z,5.50
2022-11-16T01:31:02.321Z,5.03
2022-11-16T01:36:10.692Z,4.77
2022-11-16T01:41:16.576Z,5.23
2022-11-16T01:46:24.939Z,5.47
2022-11-16T01:51:29.190Z,6.17
2022-11-16T01:56:34.154Z,6.30
2022-11-16T02:01:46.705Z,5.77
2022-11-16T02:06:56.823Z,6.10
2022-11-16T02:12:13.064Z,6.47
2022-11-16T02:17:26.760Z,6.80
2022-11-16T02:22:37.767Z,6.37
2022-11-16T02:27:53.170Z,7.10
2022-11-16T02:33:02.442Z,7.37
2022-11-16T02:38:08.432Z,6.30
2022-11-16T02:43:13.326Z,6.73
2022-11-16T02:48:19.152Z,6.77
2022-11-16T02:53:23.343Z,6.27
2022-11-16T02:58:27.946Z,6.27
2022-11-16T03:03:36.163Z,5.60
2022-11-16T03:08:40.968Z,6.10
2022-11-16T03:13:48.022Z,5.40
2022-11-16T03:18:53.511Z,5.00
2022-11-16T03:23:57.009Z,6.93
2022-11-16T03:29:02.839Z,5.97
2022-11-16T03:34:13.571Z,6.23
2022-11-16T03:39:18.771Z,5.77
2022-11-16T03:44:23.325Z,7.20
2022-11-16T03:49:31.117Z,6.93
2022-11-16T03:54:34.448Z,6.83
2022-11-16T03:59:38.185Z,7.40
2022-11-16T04:05:00.065Z,6.93
2022-11-16T04:10:20.602Z,6.83
2022-11-16T04:15:41.443Z,5.37
2022-11-16T04:21:03.772Z,4.37
2022-11-16T04:26:07.815Z,2.90
2022-11-16T04:31:29.377Z,2.37
2022-11-16T04:37:01.422Z,2.47
2022-11-16T04:42:19.815Z,2.93
2022-11-16T04:47:26.388Z,2.23
2022-11-16T04:52:31.143Z,2.50
2022-11-16T04:57:35.091Z,2.53
2022-11-16T05:02:40.054Z,5.73
2022-11-16T05:07:46.460Z,5.87
2022-11-16T05:12:56.959Z,6.80
2022-11-16T05:18:01.406Z,7.10
2022-11-16T05:23:27.595Z,6.97
2022-11-16T05:28:33.606Z,6.63
2022-11-16T05:33:38.230Z,5.60
2022-11-16T05:38:43.554Z,6.23
2022-11-16T05:43:46.806Z,5.83
2022-11-16T05:48:55.327Z,5.13
2022-11-16T05:54:00.138Z,6.43
2022-11-16T05:59:03.704Z,5.57
2022-11-16T06:04:07.094Z,5.77
2022-11-16T06:09:13.008Z,5.57
2022-11-16T06:14:16.599Z,5.17
2022-11-16T06:19:20.728Z,5.17
2022-11-16T06:24:25.291Z,5.23
2022-11-16T06:29:29.086Z,6.30
2022-11-16T06:34:32.577Z,6.90
2022-11-16T06:39:37.375Z,6.37
2022-11-16T06:44:40.671Z,5.57
2022-11-16T06:49:45.696Z,3.50
2022-11-16T06:54:56.129Z,3.07
2022-11-16T06:59:59.801Z,5.07
2022-11-16T07:05:03.893Z,3.00
2022-11-16T07:10:11.111Z,2.90
2022-11-16T07:15:14.496Z,3.10
2022-11-16T07:20:21.170Z,2.70
2022-11-16T07:25:25.743Z,3.50
2022-11-16T07:30:29.687Z,4.53
2022-11-16T07:35:42.810Z,4.80
2022-11-16T07:40:47.671Z,4.60
2022-11-16T07:45:54.378Z,5.93
2022-11-16T07:51:01.674Z,6.20
2022-11-16T07:56:08.556Z,7.53
2022-11-16T08:01:12.519Z,6.77
2022-11-16T08:06:17.574Z,5.33
2022-11-16T08:11:22.168Z,6.93
2022-11-16T08:16:27.260Z,4.40
2022-11-16T08:21:39.438Z,5.33
2022-11-16T08:26:44.945Z,7.73
2022-11-16T08:31:50.825Z,6.17
2022-11-16T08:36:56.292Z,4.63
2022-11-16T08:42:07.908Z,1.97
2022-11-16T08:47:11.808Z,1.00
2022-11-16T08:52:20.544Z,1.13
2022-11-16T08:57:27.520Z,3.07
2022-11-16T09:02:35.352Z,3.70
2022-11-16T09:07:43.472Z,3.97
2022-11-16T09:12:48.330Z,3.77
2022-11-16T09:17:55.005Z,3.20
2022-11-16T09:22:58.328Z,2.43
2022-11-16T09:28:04.160Z,3.40
2022-11-16T09:33:07.501Z,2.47
2022-11-16T09:38:14.765Z,2.80
2022-11-16T09:43:29.421Z,2.20
2022-11-16T09:48:33.683Z,2.40
2022-11-16T09:53:38.810Z,2.40
2022-11-16T09:58:47.315Z,2.20
2022-11-16T10:03:51.932Z,1.80
2022-11-16T10:08:56.983Z,1.83
2022-11-16T10:14:06.875Z,1.97
2022-11-16T10:19:14.324Z,2.03
2022-11-16T10:24:31.784Z,1.97
2022-11-16T10:29:41.530Z,2.00
2022-11-16T10:34:49.629Z,2.10
2022-11-16T10:39:54.204Z,2.70
2022-11-16T10:45:03.983Z,2.57
2022-11-16T10:50:18.755Z,2.10
2022-11-16T10:55:22.988Z,3.00
2022-11-16T11:00:53.563Z,2.47
2022-11-16T11:05:58.436Z,1.80
2022-11-16T11:11:22.946Z,2.80
2022-11-16T11:16:27.464Z,1.67
2022-11-16T11:21:32.190Z,1.97
2022-11-16T11:26:37.527Z,2.00
2022-11-16T11:31:43.711Z,2.27
2022-11-16T11:36:49.907Z,1.90
2022-11-16T11:42:02.008Z,2.07
2022-11-16T11:47:55.399Z,1.67
2022-11-16T11:52:40.353Z,7.33
2022-11-16T11:57:44.889Z,1.60
2022-11-16T12:02:56.026Z,1.60
2022-11-16T12:08:10.523Z,1.70
2022-11-16T12:13:28.587Z,1.93
2022-11-16T12:18:44.188Z,1.83
2022-11-16T12:24:05.456Z,1.60
2022-11-16T12:29:20.389Z,1.80
2022-11-16T12:34:28.577Z,2.00
2022-11-16T12:39:35.149Z,1.50
2022-11-16T12:44:50.835Z,2.03
2022-11-16T12:50:19.785Z,1.70
2022-11-16T12:55:28.014Z,2.27
2022-11-16T13:00:36.507Z,1.70
2022-11-16T13:05:53.812Z,1.93
2022-11-16T13:11:00.549Z,6.97
2022-11-16T13:16:06.558Z,2.40
2022-11-16T13:21:14.104Z,2.03
2022-11-16T13:26:22.433Z,2.30
2022-11-16T13:31:30.458Z,2.30
2022-11-16T13:36:47.715Z,2.13
2022-11-16T13:41:51.790Z,2.00
2022-11-16T13:46:59.710Z,1.90
2022-11-16T13:52:21.930Z,2.13
2022-11-16T13:57:27.366Z,2.03
2022-11-16T14:02:33.618Z,4.30
2022-11-16T14:07:43.123Z,3.20
2022-11-16T14:12:50.348Z,1.30
2022-11-16T14:17:57.647Z,1.13
2022-11-16T14:23:05.748Z,1.40
2022-11-16T14:28:23.830Z,1.50
2022-11-16T14:33:33.413Z,1.43
2022-11-16T14:38:38.666Z,1.57
2022-11-16T14:43:44.517Z,4.30
2022-11-16T14:48:49.437Z,1.70
2022-11-16T14:53:54.839Z,1.83
2022-11-16T14:58:58.919Z,1.60
2022-11-16T15:04:04.665Z,1.93
2022-11-16T15:09:07.931Z,4.03
2022-11-16T15:14:11.191Z,3.07
2022-11-16T15:19:15.773Z,5.47
2022-11-16T15:24:30.471Z,3.23
2022-11-16T15:29:34.470Z,14.97
2022-11-16T15:34:39.527Z,5.97
2022-11-16T15:39:43.971Z,9.40
2022-11-16T15:44:47.315Z,9.37
2022-11-16T15:49:53.216Z,16.87
2022-11-16T15:55:07.606Z,6.57
2022-11-16T16:00:23.111Z,5.13
2022-11-16T16:05:35.073Z,3.57
2022-11-16T16:10:38.468Z,3.33
2022-11-16T16:15:41.806Z,1.53
2022-11-16T16:20:49.425Z,1.40
2022-11-16T16:25:52.774Z,3.63
2022-11-16T16:30:56.712Z,3.57
2022-11-16T16:36:01.866Z,8.87
2022-11-16T16:41:05.767Z,4.70
2022-11-16T16:46:12.581Z,3.20
2022-11-16T16:51:17.121Z,13.63
2022-11-16T16:56:20.738Z,6.20
2022-11-16T17:01:24.137Z,11.23
2022-11-16T17:06:30.684Z,18.47
2022-11-16T17:11:33.994Z,13.90
2022-11-16T17:16:37.376Z,13.07
2022-11-16T17:21:42.108Z,8.17
2022-11-16T17:26:48.375Z,6.60
2022-11-16T17:31:51.709Z,7.63
2022-11-16T17:36:56.909Z,5.90
2022-11-16T17:42:00.133Z,5.03
2022-11-16T17:47:03.537Z,4.60
2022-11-16T17:52:08.186Z,9.73
2022-11-16T17:57:11.515Z,4.70
2022-11-16T18:02:14.819Z,4.00
2022-11-16T18:07:19.669Z,5.37
2022-11-16T18:12:22.951Z,4.70
2022-11-16T18:17:26.163Z,3.73
2022-11-16T18:22:30.751Z,4.20
2022-11-16T18:27:34.029Z,3.67
2022-11-16T18:32:37.337Z,4.63
2022-11-16T18:37:41.932Z,4.67
2022-11-16T18:42:45.126Z,6.17
2022-11-16T18:47:48.534Z,5.83
2022-11-16T18:52:53.349Z,7.17
2022-11-16T18:57:56.760Z,5.50
2022-11-16T19:03:00.133Z,5.27
2022-11-16T19:08:04.909Z,4.90
2022-11-16T19:13:08.109Z,5.80
2022-11-16T19:18:26.310Z,4.67
2022-11-16T19:23:31.164Z,5.37
2022-11-16T19:28:36.739Z,9.60
2022-11-16T19:33:40.144Z,4.87
2022-11-16T19:38:45.182Z,5.33
2022-11-16T19:43:48.673Z,5.43
2022-11-16T19:48:52.095Z,5.47
2022-11-16T19:53:57.978Z,6.40
2022-11-16T19:59:01.423Z,5.40
2022-11-16T20:04:05.156Z,5.10
2022-11-16T20:09:12.031Z,5.17
2022-11-16T20:14:15.542Z,5.33
2022-11-16T20:19:20.518Z,5.57
2022-11-16T20:24:25.139Z,4.70
2022-11-16T20:29:28.654Z,4.00
2022-11-16T20:34:32.136Z,4.20
2022-11-16T20:39:36.880Z,5.27
2022-11-16T20:44:40.221Z,5.63
2022-11-16T20:49:43.699Z,6.53
2022-11-16T20:54:48.212Z,5.27
2022-11-16T20:59:51.396Z,5.00
2022-11-16T21:04:58.990Z,5.10
2022-11-16T21:10:20.194Z,4.83
2022-11-16T21:15:23.511Z,4.20
2022-11-16T21:20:28.382Z,4.07
2022-11-16T21:25:33.366Z,4.10
2022-11-16T21:30:36.661Z,4.77
2022-11-16T21:35:39.888Z,4.67
2022-11-16T21:40:44.947Z,5.17
2022-11-16T21:45:49.464Z,5.50
2022-11-16T21:51:00.168Z,6.20
2022-11-16T21:56:05.571Z,5.40
2022-11-16T22:01:09.632Z,5.20
2022-11-16T22:06:31.581Z,6.60
2022-11-16T22:11:36.244Z,6.30
2022-11-16T22:16:39.971Z,5.27
2022-11-16T22:21:43.191Z,5.97
2022-11-16T22:26:47.971Z,5.60
2022-11-16T22:31:51.184Z,6.00
2022-11-16T22:36:54.307Z,5.67
2022-11-16T22:41:59.022Z,7.07
2022-11-16T22:47:02.646Z,7.40
2022-11-16T22:52:08.668Z,6.93
2022-11-16T22:57:13.254Z,7.23
2022-11-16T23:02:16.449Z,6.83
2022-11-16T23:07:20.142Z,6.63
2022-11-16T23:12:42.176Z,5.70
2022-11-16T23:17:46.481Z,5.60
2022-11-16T23:23:07.254Z,5.57
2022-11-16T23:28:14.220Z,6.30
2022-11-16T23:33:17.834Z,4.83
2022-11-16T23:38:21.111Z,6.90
2022-11-16T23:43:43.157Z,6.47
2022-11-16T23:48:46.601Z,6.80
2022-11-16T23:53:49.860Z,6.70
2022-11-16T23:58:58.314Z,6.80
